Time;durP1;ratioP1;P1;durP2;ratioP2;P2;SDS_P1;SDS_P2;PMS_P1;PMS_P2;Temp;Humidity;BMP_temperature;BMP_pressure;BME280_temperature;BME280_humidity;BME280_pressure;Samples;Min_cycle;Max_cycle;Signal;HPM_P1;HPM_P2
2023/03/16 01:57:11;;;;;;;11.00;4.07;;;3.40;99.90;;;;;;6210315;23;20040;-96
2023/03/16 01:59:55;;;;;;;8.75;3.97;;;3.40;99.90;;;;;;6161756;23;20020;-96
2023/03/16 02:02:28;;;;;;;9.43;3.90;;;3.50;99.90;;;;;;6189076;23;20044;-96
2023/03/16 02:05:08;;;;;;;9.32;4.40;;;3.40;99.90;;;;;;6186881;23;20044;-96
2023/03/16 05:10:02;;;;;;;10.70;4.53;;;4.40;99.90;;;;;;6238989;23;20021;-95
2023/03/16 05:12:28;;;;;;;9.85;3.97;;;4.40;99.90;;;;;;6233888;23;20011;-96
2023/03/16 05:14:54;;;;;;;10.02;4.85;;;4.40;99.90;;;;;;6236856;23;20021;-96
2023/03/16 05:17:21;;;;;;;9.25;4.20;;;4.30;99.90;;;;;;6237778;23;20027;-96
2023/03/16 05:19:47;;;;;;;9.20;4.13;;;4.40;99.90;;;;;;6239306;23;20071;-96
2023/03/16 05:22:13;;;;;;;9.50;4.75;;;4.40;99.90;;;;;;6172996;23;20008;-96
2023/03/16 05:24:38;;;;;;;10.68;4.15;;;4.40;99.90;;;;;;6205860;23;20021;-96
2023/03/16 05:27:04;;;;;;;10.05;4.00;;;4.40;99.90;;;;;;6210257;23;20011;-96
2023/03/16 05:29:30;;;;;;;8.77;4.50;;;4.40;99.90;;;;;;6197357;23;20021;-96
2023/03/16 05:34:47;;;;;;;9.23;4.20;;;4.50;99.90;;;;;;6228098;22;20021;-96
2023/03/16 05:37:13;;;;;;;10.07;4.30;;;4.50;99.90;;;;;;6210202;23;20017;-95
2023/03/16 05:39:44;;;;;;;8.45;3.60;;;4.50;99.90;;;;;;6202264;23;20116;-96
2023/03/16 10:10:39;;;;;;;11.25;5.10;;;6.60;99.90;;;;;;6215025;23;20023;-87
2023/03/16 10:13:29;;;;;;;11.80;7.88;;;6.50;99.90;;;;;;6208419;23;20025;-87
2023/03/16 10:15:56;;;;;;;11.75;7.65;;;6.60;99.90;;;;;;6184866;23;20048;-87
2023/03/16 10:18:34;;;;;;;11.50;8.18;;;6.60;99.90;;;;;;6209194;23;20017;-88
2023/03/16 10:21:01;;;;;;;11.43;5.45;;;6.60;99.90;;;;;;6209620;23;20484;-87
2023/03/16 10:23:34;;;;;;;10.90;7.05;;;6.60;99.90;;;;;;6209846;23;20094;-88
2023/03/16 10:26:11;;;;;;;13.15;5.95;;;6.70;99.90;;;;;;6210299;23;20079;-87
2023/03/16 10:28:37;;;;;;;10.48;7.13;;;6.70;99.90;;;;;;6210276;23;20055;-88
2023/03/16 10:31:03;;;;;;;11.23;7.82;;;6.80;99.90;;;;;;6210951;23;20465;-88
2023/03/16 10:33:32;;;;;;;10.63;7.53;;;6.90;99.90;;;;;;6209340;23;20013;-87
2023/03/16 10:36:30;;;;;;;12.65;7.18;;;6.90;99.90;;;;;;6184095;23;20044;-90
2023/03/16 10:38:58;;;;;;;12.07;5.70;;;7.00;99.90;;;;;;6185501;23;20096;-91
2023/03/16 10:41:31;;;;;;;10.43;7.00;;;7.00;99.90;;;;;;6185362;23;20016;-90
2023/03/16 10:44:11;;;;;;;9.63;4.65;;;7.00;99.90;;;;;;6184425;23;20368;-91
2023/03/16 10:46:41;;;;;;;11.05;7.13;;;7.00;99.90;;;;;;6210248;23;20015;-88
2023/03/16 10:49:20;;;;;;;10.38;7.38;;;7.00;99.90;;;;;;6180617;23;20116;-88
2023/03/16 10:51:46;;;;;;;11.35;7.03;;;7.10;99.90;;;;;;6182429;23;20012;-89
2023/03/16 10:54:16;;;;;;;9.73;7.05;;;7.10;99.90;;;;;;6210088;23;20020;-88
2023/03/16 10:56:42;;;;;;;9.98;6.75;;;7.20;99.90;;;;;;6207892;23;20088;-88
2023/03/16 10:59:26;;;;;;;10.63;6.78;;;7.20;99.90;;;;;;6158200;23;20094;-87
2023/03/16 11:01:53;;;;;;;11.43;6.78;;;7.30;99.90;;;;;;6183533;23;20016;-89
2023/03/16 11:04:19;;;;;;;9.55;5.28;;;7.40;99.90;;;;;;6207995;23;20315;-89
2023/03/16 11:06:56;;;;;;;11.10;6.57;;;7.40;99.90;;;;;;6206644;23;20012;-88
2023/03/16 11:09:31;;;;;;;11.80;7.00;;;7.40;99.90;;;;;;6192414;23;20027;-89
2023/03/16 11:11:58;;;;;;;11.95;7.00;;;7.40;99.90;;;;;;6211256;23;20052;-87
2023/03/16 11:14:27;;;;;;;9.75;6.60;;;7.40;99.90;;;;;;6210503;23;20020;-90
2023/03/16 11:17:00;;;;;;;11.02;6.43;;;7.40;99.90;;;;;;6211168;23;20036;-87
2023/03/16 11:19:29;;;;;;;11.68;6.78;;;7.40;99.90;;;;;;6206877;23;20438;-87
2023/03/16 11:22:05;;;;;;;11.35;6.63;;;7.30;99.90;;;;;;6207604;23;20040;-85
2023/03/16 11:24:52;;;;;;;13.05;6.82;;;7.40;99.90;;;;;;6210161;23;20024;-86
2023/03/16 11:27:23;;;;;;;10.43;6.53;;;7.40;99.90;;;;;;6207565;23;20079;-89
2023/03/16 11:30:08;;;;;;;9.15;3.95;;;7.40;99.90;;;;;;6208158;23;20496;-90
2023/03/16 11:32:36;;;;;;;9.68;6.40;;;7.50;99.90;;;;;;6210110;23;20087;-93
2023/03/16 11:35:13;;;;;;;10.40;6.03;;;7.50;99.90;;;;;;6189670;23;20009;-91
2023/03/16 11:38:06;;;;;;;10.30;5.80;;;7.60;99.90;;;;;;6190550;23;20024;-94
2023/03/16 11:40:54;;;;;;;9.77;5.93;;;7.60;99.90;;;;;;6205020;23;20056;-89
2023/03/16 11:43:55;;;;;;;9.77;5.47;;;7.70;99.90;;;;;;6231552;23;20085;-93
2023/03/16 11:46:38;;;;;;;9.40;5.88;;;7.80;99.90;;;;;;6211774;23;20019;-93
2023/03/16 11:49:23;;;;;;;9.27;5.70;;;7.90;99.90;;;;;;6212522;23;20051;-96
2023/03/16 11:52:22;;;;;;;9.07;5.43;;;8.00;99.90;;;;;;6208157;23;20008;-89
2023/03/16 11:55:25;;;;;;;9.93;5.60;;;8.10;99.90;;;;;;6208916;23;20019;-90
2023/03/16 11:58:19;;;;;;;9.23;5.30;;;8.20;99.90;;;;;;6181947;23;20311;-88
2023/03/16 12:00:55;;;;;;;8.38;5.20;;;8.30;99.90;;;;;;6209568;23;20056;-90
2023/03/16 12:04:00;;;;;;;8.02;4.72;;;8.40;99.90;;;;;;6207133;23;20159;-92
2023/03/16 12:06:56;;;;;;;8.93;4.88;;;8.60;99.90;;;;;;6207736;23;20051;-93
2023/03/16 12:10:17;;;;;;;9.90;5.13;;;8.80;99.90;;;;;;6207319;23;20016;-90
2023/03/16 12:13:06;;;;;;;9.33;4.90;;;8.90;99.90;;;;;;6171529;23;20159;-92
2023/03/16 12:15:53;;;;;;;8.57;4.80;;;9.00;99.90;;;;;;6212770;23;20366;-91
2023/03/16 12:18:38;;;;;;;10.77;5.18;;;9.10;99.90;;;;;;6216650;23;20013;-91
2023/03/16 12:21:12;;;;;;;8.98;4.50;;;9.20;99.90;;;;;;6214757;23;20087;-93
2023/03/16 12:24:01;;;;;;;8.85;5.10;;;9.40;99.90;;;;;;6210702;23;20012;-91
2023/03/16 12:26:31;;;;;;;9.75;5.07;;;9.50;99.90;;;;;;6209080;23;20013;-89
2023/03/16 12:28:59;;;;;;;8.02;5.03;;;9.50;99.90;;;;;;6209278;23;20008;-88
2023/03/16 12:31:40;;;;;;;8.50;4.82;;;9.60;99.90;;;;;;6202094;23;20013;-86
2023/03/16 12:34:06;;;;;;;8.73;4.75;;;9.70;99.90;;;;;;6208377;23;20067;-87
2023/03/16 12:36:54;;;;;;;9.98;5.00;;;9.70;99.90;;;;;;6210052;23;20091;-95
2023/03/16 12:39:42;;;;;;;8.05;5.00;;;9.70;99.90;;;;;;6208518;23;20012;-93
2023/03/16 12:42:34;;;;;;;8.13;4.70;;;9.60;99.90;;;;;;6181504;23;20020;-89
2023/03/16 12:45:37;;;;;;;9.73;4.80;;;9.70;99.90;;;;;;6174797;23;20017;-90
2023/03/16 12:48:11;;;;;;;7.82;4.80;;;9.70;99.90;;;;;;6204985;23;20450;-90
2023/03/16 12:50:49;;;;;;;8.18;4.47;;;9.70;99.90;;;;;;6209188;23;20020;-91
2023/03/16 12:53:25;;;;;;;9.20;4.70;;;9.60;99.90;;;;;;6208138;23;20013;-91
2023/03/16 12:55:52;;;;;;;8.77;4.93;;;9.60;99.90;;;;;;6183126;23;20017;-89
2023/03/16 12:58:17;;;;;;;8.25;4.72;;;9.50;99.90;;;;;;6207758;23;20009;-90
2023/03/16 13:00:55;;;;;;;9.27;4.88;;;9.50;99.90;;;;;;6183180;23;20035;-90
2023/03/16 13:03:22;;;;;;;9.43;5.25;;;9.60;99.90;;;;;;6206283;23;20016;-87
2023/03/16 13:05:57;;;;;;;8.40;5.03;;;9.60;99.90;;;;;;6207481;23;20394;-88
2023/03/16 13:08:24;;;;;;;7.70;4.72;;;9.60;99.90;;;;;;6209414;23;20048;-88
2023/03/16 13:11:04;;;;;;;7.55;4.72;;;9.60;99.90;;;;;;6208714;23;20141;-91
2023/03/16 13:13:31;;;;;;;10.23;5.40;;;9.60;99.90;;;;;;6154480;23;20013;-90
2023/03/16 13:16:09;;;;;;;8.20;4.63;;;9.60;99.90;;;;;;6180847;23;20025;-88
2023/03/16 13:18:48;;;;;;;8.65;4.72;;;9.60;99.90;;;;;;6208003;23;20008;-87
2023/03/16 13:21:18;;;;;;;9.95;4.90;;;9.60;99.90;;;;;;6156227;23;20017;-87
2023/03/16 13:23:59;;;;;;;9.13;5.28;;;9.70;99.90;;;;;;6156551;23;20073;-91
2023/03/16 13:26:40;;;;;;;8.18;4.53;;;9.70;99.90;;;;;;6181203;23;20043;-91
2023/03/16 13:29:26;;;;;;;7.97;4.72;;;9.80;99.90;;;;;;6212274;23;20091;-94
2023/03/16 13:31:55;;;;;;;8.52;4.65;;;10.00;99.90;;;;;;6187526;23;20015;-94
2023/03/16 13:34:36;;;;;;;8.57;5.05;;;10.30;99.90;;;;;;6161635;23;20012;-96
2023/03/16 13:37:03;;;;;;;8.90;4.70;;;10.50;99.90;;;;;;6161885;23;20017;-92
2023/03/16 13:39:30;;;;;;;7.95;4.72;;;10.70;99.90;;;;;;6211113;23;20020;-92
2023/03/16 13:42:19;;;;;;;7.72;4.70;;;10.90;99.90;;;;;;6163775;23;20009;-96
2023/03/16 13:44:45;;;;;;;8.15;4.35;;;11.00;99.90;;;;;;6189587;23;20047;-93
2023/03/16 13:47:17;;;;;;;8.18;4.40;;;11.10;99.90;;;;;;6161756;23;20020;-94
2023/03/16 13:49:44;;;;;;;9.02;4.78;;;11.10;99.90;;;;;;6179079;23;20035;-93
2023/03/16 13:52:32;;;;;;;10.15;4.50;;;11.30;99.90;;;;;;6209762;23;20080;-94
2023/03/16 13:54:59;;;;;;;8.90;4.70;;;11.40;99.90;;;;;;6163384;23;20048;-92
2023/03/16 13:57:28;;;;;;;8.70;4.82;;;11.40;99.90;;;;;;6166814;23;20036;-95
2023/03/16 14:00:25;;;;;;;7.47;4.40;;;11.40;99.90;;;;;;6168550;23;20013;-96
2023/03/16 14:03:00;;;;;;;8.10;4.38;;;11.20;99.90;;;;;;6188723;23;20059;-92
2023/03/16 14:05:28;;;;;;;8.40;4.20;;;11.10;99.90;;;;;;6185360;23;20015;-93
2023/03/16 14:07:56;;;;;;;8.18;4.82;;;11.00;99.90;;;;;;6186417;23;20013;-92
2023/03/16 14:10:32;;;;;;;8.88;4.65;;;10.90;99.90;;;;;;6211892;23;20024;-91
2023/03/16 14:13:21;;;;;;;8.70;4.75;;;10.90;99.90;;;;;;6162728;23;20446;-93
2023/03/16 14:15:47;;;;;;;8.05;4.50;;;10.80;99.90;;;;;;6216078;23;20335;-92
2023/03/16 14:18:22;;;;;;;8.35;4.63;;;10.70;99.90;;;;;;6190965;23;20013;-95
2023/03/16 14:20:51;;;;;;;7.53;4.45;;;10.60;99.90;;;;;;6194209;23;20008;-94
2023/03/16 14:23:28;;;;;;;8.48;4.45;;;10.60;99.90;;;;;;6165026;23;20051;-92
2023/03/16 14:25:54;;;;;;;8.73;4.68;;;10.50;99.90;;;;;;6189890;23;20024;-94
2023/03/16 14:28:41;;;;;;;9.27;5.03;;;10.50;99.90;;;;;;6189312;23;20009;-94
2023/03/16 14:31:17;;;;;;;8.68;4.50;;;10.50;99.90;;;;;;6191870;23;20013;-89
2023/03/16 14:33:44;;;;;;;6.97;4.47;;;10.50;99.90;;;;;;6167092;23;20016;-94
2023/03/16 14:36:18;;;;;;;9.73;4.95;;;10.40;99.90;;;;;;6186734;23;20015;-88
2023/03/16 14:38:47;;;;;;;9.25;4.70;;;10.50;99.90;;;;;;6162653;23;20075;-93
2023/03/16 14:41:18;;;;;;;7.63;4.70;;;10.50;99.90;;;;;;6187703;23;20088;-94
2023/03/16 14:43:48;;;;;;;9.27;4.75;;;10.60;99.90;;;;;;6188331;23;20066;-94
2023/03/16 14:46:22;;;;;;;8.30;4.70;;;10.80;99.90;;;;;;6161193;23;20023;-92
2023/03/16 14:48:49;;;;;;;11.13;5.25;;;11.10;99.90;;;;;;6193208;23;20044;-94
2023/03/16 14:51:15;;;;;;;8.23;4.60;;;11.30;99.90;;;;;;6164522;23;20028;-93
2023/03/16 14:53:40;;;;;;;9.15;4.72;;;11.60;99.90;;;;;;6191075;23;20009;-95
2023/03/16 14:56:13;;;;;;;8.32;4.50;;;11.80;99.90;;;;;;6189055;23;20608;-96
2023/03/16 14:58:39;;;;;;;8.18;4.20;;;12.00;99.90;;;;;;6162052;23;20008;-91
2023/03/16 15:01:06;;;;;;;8.77;4.38;;;12.00;99.90;;;;;;6186065;23;20039;-91
2023/03/16 15:03:34;;;;;;;8.07;4.60;;;12.00;99.90;;;;;;6211772;23;20114;-92
2023/03/16 15:06:01;;;;;;;8.32;4.38;;;12.00;99.90;;;;;;6183998;23;20013;-89
2023/03/16 15:08:32;;;;;;;8.35;4.80;;;11.90;99.90;;;;;;6182199;23;20020;-91
2023/03/16 15:11:01;;;;;;;8.93;4.30;;;11.80;99.90;;;;;;6185319;23;20017;-87
2023/03/16 15:13:41;;;;;;;8.48;4.35;;;11.70;99.90;;;;;;6184057;23;20017;-91
2023/03/16 15:16:10;;;;;;;8.27;4.60;;;11.70;99.90;;;;;;6184337;23;20004;-89
2023/03/16 15:18:38;;;;;;;7.57;4.28;;;11.70;99.90;;;;;;6211637;23;20546;-88
2023/03/16 15:21:14;;;;;;;7.57;4.68;;;11.60;99.90;;;;;;6160322;23;20008;-90
2023/03/16 15:23:43;;;;;;;9.07;4.68;;;11.60;99.90;;;;;;6183516;23;20017;-93
2023/03/16 15:26:11;;;;;;;7.72;4.50;;;11.50;99.90;;;;;;6184924;23;20017;-90
2023/03/16 15:28:37;;;;;;;8.70;4.45;;;11.40;99.90;;;;;;6210406;23;20012;-90
2023/03/16 15:31:03;;;;;;;8.95;4.30;;;11.40;99.90;;;;;;6186094;23;20027;-93
2023/03/16 15:33:30;;;;;;;7.80;4.60;;;11.30;99.90;;;;;;6160028;23;20063;-91
2023/03/16 15:36:01;;;;;;;10.45;4.60;;;11.20;99.90;;;;;;6185456;23;20095;-91
2023/03/16 15:38:26;;;;;;;;;;;11.10;99.90;;;;;;6159536;23;20018;-90
2023/03/16 15:40:53;;;;;;;8.90;4.85;;;11.00;99.90;;;;;;6184815;23;19998;-90
2023/03/16 15:43:21;;;;;;;9.23;4.63;;;11.00;99.90;;;;;;6159321;23;20016;-87
2023/03/16 15:45:48;;;;;;;9.43;4.70;;;10.90;99.90;;;;;;6212241;23;20016;-89
2023/03/16 15:48:15;;;;;;;8.57;4.75;;;10.90;99.90;;;;;;6184565;23;20038;-89
2023/03/16 15:50:45;;;;;;;9.02;4.72;;;10.90;99.90;;;;;;6183772;23;20087;-88
2023/03/16 15:53:34;;;;;;;7.90;4.20;;;10.90;99.90;;;;;;6189461;23;20042;-89
2023/03/16 15:56:06;;;;;;;9.75;4.70;;;10.90;99.90;;;;;;6190113;23;20019;-90
2023/03/16 15:58:33;;;;;;;8.27;4.60;;;10.90;99.90;;;;;;6224120;23;20447;-89
2023/03/16 16:01:00;;;;;;;8.85;4.63;;;10.90;99.90;;;;;;6211843;23;20000;-93
2023/03/16 16:03:26;;;;;;;7.55;4.53;;;10.90;99.90;;;;;;6193072;23;20017;-88
2023/03/16 16:05:52;;;;;;;7.72;4.40;;;10.90;99.90;;;;;;6185473;23;20024;-90
2023/03/16 16:08:19;;;;;;;8.43;4.03;;;10.90;99.90;;;;;;6184010;23;20074;-88
2023/03/16 16:10:46;;;;;;;9.32;4.28;;;10.90;99.90;;;;;;6211457;23;20016;-89
2023/03/16 16:13:27;;;;;;;7.60;4.07;;;10.80;99.90;;;;;;6183531;23;20021;-90
2023/03/16 16:15:57;;;;;;;7.25;3.92;;;10.80;99.90;;;;;;6210224;23;20013;-89
2023/03/16 16:18:35;;;;;;;8.43;4.53;;;10.80;99.90;;;;;;6183759;23;20021;-89
2023/03/16 16:21:04;;;;;;;8.48;4.25;;;10.80;99.90;;;;;;6189051;23;20088;-92
2023/03/16 16:23:31;;;;;;;8.65;3.92;;;10.90;99.90;;;;;;6169840;23;20043;-92
2023/03/16 16:26:07;;;;;;;8.45;4.30;;;11.10;99.90;;;;;;6193824;23;20401;-91
2023/03/16 16:28:34;;;;;;;8.43;3.80;;;11.30;99.90;;;;;;6190930;23;20105;-86
2023/03/16 16:31:00;;;;;;;7.40;4.22;;;11.40;99.90;;;;;;6222089;23;20009;-88
2023/03/16 16:33:34;;;;;;;8.90;4.30;;;11.40;99.90;;;;;;6197647;23;20071;-93
2023/03/16 16:36:03;;;;;;;9.50;4.38;;;11.40;99.90;;;;;;6199729;23;20004;-94
2023/03/16 16:38:29;;;;;;;8.65;4.22;;;11.20;99.90;;;;;;6220833;23;20008;-89
2023/03/16 16:40:57;;;;;;;8.43;4.13;;;11.00;99.90;;;;;;6196807;23;20375;-95
2023/03/16 16:43:36;;;;;;;7.97;4.03;;;10.90;99.90;;;;;;6170770;23;20017;-92
2023/03/16 16:46:05;;;;;;;8.70;3.92;;;10.70;99.90;;;;;;6173742;23;20012;-88
2023/03/16 16:48:40;;;;;;;7.05;3.58;;;10.60;99.90;;;;;;6223922;23;20017;-92
2023/03/16 16:51:19;;;;;;;7.53;4.03;;;10.50;99.90;;;;;;6170226;23;20055;-88
2023/03/16 16:53:46;;;;;;;8.75;4.18;;;10.30;99.90;;;;;;6193428;23;20090;-92
2023/03/16 16:56:17;;;;;;;8.00;4.30;;;10.20;99.90;;;;;;6195157;23;20034;-95
2023/03/16 16:58:44;;;;;;;;;;;10.00;99.90;;;;;;6194069;23;20080;-89
2023/03/16 17:01:16;;;;;;;8.80;3.90;;;9.80;99.90;;;;;;6162002;23;19935;-87
2023/03/16 17:03:42;;;;;;;8.45;4.25;;;9.70;99.90;;;;;;6219093;23;20020;-87
2023/03/16 17:06:15;;;;;;;8.23;3.63;;;9.60;99.90;;;;;;6219555;23;20013;-93
2023/03/16 17:08:45;;;;;;;7.40;4.00;;;9.50;99.90;;;;;;6191008;23;20023;-88
2023/03/16 17:11:25;;;;;;;7.90;3.80;;;9.40;99.90;;;;;;6208298;23;20066;-90
2023/03/16 17:13:52;;;;;;;8.40;4.10;;;9.30;99.90;;;;;;6209850;23;20399;-88
2023/03/16 17:16:21;;;;;;;8.07;4.00;;;9.20;99.90;;;;;;6207867;23;20023;-88
2023/03/16 17:18:48;;;;;;;7.72;4.10;;;9.10;99.90;;;;;;6210936;23;20031;-88
2023/03/16 17:21:18;;;;;;;7.57;3.90;;;9.00;99.90;;;;;;6217173;23;20014;-88
2023/03/16 17:23:45;;;;;;;8.52;4.63;;;8.90;99.90;;;;;;6213343;23;20021;-88
2023/03/16 17:26:31;;;;;;;9.27;4.50;;;8.80;99.90;;;;;;6207723;23;20047;-88
2023/03/16 17:29:05;;;;;;;8.70;4.32;;;8.70;99.90;;;;;;6178057;23;20055;-88
2023/03/16 17:31:35;;;;;;;7.20;3.85;;;8.70;99.90;;;;;;6208780;23;20385;-87
2023/03/16 17:34:02;;;;;;;8.13;4.57;;;8.60;99.90;;;;;;6210894;23;20013;-88
2023/03/16 17:36:29;;;;;;;9.45;4.57;;;8.50;99.90;;;;;;6207686;23;20016;-88
2023/03/16 17:38:55;;;;;;;8.70;4.32;;;8.50;99.90;;;;;;6208122;23;20017;-87
2023/03/16 17:41:26;;;;;;;8.65;4.35;;;8.50;99.90;;;;;;6209266;23;20377;-87
2023/03/16 17:43:54;;;;;;;8.50;4.47;;;8.50;99.90;;;;;;6183693;23;20058;-88
2023/03/16 17:46:23;;;;;;;7.50;4.40;;;8.50;99.90;;;;;;6207979;23;20009;-89
2023/03/16 17:48:51;;;;;;;8.48;4.80;;;8.50;99.90;;;;;;6210768;23;20633;-88
2023/03/16 17:51:19;;;;;;;9.32;4.45;;;8.50;99.90;;;;;;6211383;23;20087;-88
2023/03/16 17:53:45;;;;;;;8.45;4.43;;;8.50;99.90;;;;;;6209717;23;20008;-87
2023/03/16 17:56:19;;;;;;;9.25;4.57;;;8.50;99.90;;;;;;6211331;23;20044;-87
2023/03/16 17:58:50;;;;;;;8.82;4.45;;;8.50;99.90;;;;;;6208548;23;20087;-87
2023/03/16 18:01:18;;;;;;;8.38;4.10;;;8.50;99.90;;;;;;6207010;23;20012;-87
2023/03/16 18:03:44;;;;;;;9.40;4.38;;;8.50;99.90;;;;;;6207199;23;20024;-86
2023/03/16 18:06:23;;;;;;;8.77;4.28;;;8.50;99.90;;;;;;6207965;23;20017;-87
2023/03/16 18:08:49;;;;;;;8.75;4.35;;;8.50;99.90;;;;;;6208682;23;20024;-87
2023/03/16 18:11:21;;;;;;;8.57;4.45;;;8.50;99.90;;;;;;6219093;23;20023;-86
2023/03/16 18:13:49;;;;;;;9.18;4.13;;;8.50;99.90;;;;;;6223094;23;20017;-87
2023/03/16 18:16:21;;;;;;;9.40;4.22;;;8.50;99.90;;;;;;6213123;23;20377;-88
2023/03/16 18:18:48;;;;;;;8.82;4.53;;;8.40;99.90;;;;;;6207890;23;20327;-87
2023/03/16 18:21:22;;;;;;;9.45;4.50;;;8.40;99.90;;;;;;6211537;23;20027;-87
2023/03/16 18:23:48;;;;;;;8.35;4.45;;;8.40;99.90;;;;;;6208398;23;20342;-87
2023/03/16 18:26:14;;;;;;;8.73;4.18;;;8.40;99.90;;;;;;6207418;23;20022;-87
2023/03/16 18:28:40;;;;;;;8.70;4.45;;;8.50;99.90;;;;;;6208028;23;20489;-87
2023/03/16 18:31:22;;;;;;;8.32;4.20;;;8.50;99.90;;;;;;6209647;23;20023;-87
2023/03/16 18:33:54;;;;;;;7.93;4.35;;;8.40;99.90;;;;;;6210416;23;20013;-87
2023/03/16 18:36:28;;;;;;;9.32;4.82;;;8.50;99.90;;;;;;6207959;23;20031;-87
2023/03/16 18:38:56;;;;;;;8.15;4.45;;;8.50;99.90;;;;;;6211058;23;20088;-86
2023/03/16 18:41:23;;;;;;;8.13;4.32;;;8.50;99.90;;;;;;6208098;23;20017;-87
2023/03/16 18:43:51;;;;;;;7.90;4.13;;;8.40;99.90;;;;;;6209451;23;20325;-87
2023/03/16 18:46:33;;;;;;;9.32;4.30;;;8.50;99.90;;;;;;6208305;23;20309;-87
2023/03/16 18:49:09;;;;;;;8.23;4.07;;;8.50;99.90;;;;;;6211226;23;20040;-87
2023/03/16 18:51:34;;;;;;;8.48;5.03;;;8.40;99.90;;;;;;6182912;23;20479;-87
2023/03/16 18:54:00;;;;;;;7.57;4.35;;;8.40;99.90;;;;;;6210882;23;20352;-87
2023/03/16 18:56:27;;;;;;;8.55;4.30;;;8.40;99.90;;;;;;6208633;23;20059;-90
2023/03/16 18:58:55;;;;;;;8.13;4.25;;;8.40;99.90;;;;;;6209932;23;20480;-89
2023/03/16 19:01:32;;;;;;;8.60;4.63;;;8.40;99.90;;;;;;6207901;23;20015;-89
2023/03/16 19:04:00;;;;;;;8.57;4.40;;;8.40;99.90;;;;;;6210027;23;20373;-88
2023/03/16 19:06:29;;;;;;;7.78;4.22;;;8.40;99.90;;;;;;6208106;23;20051;-89
2023/03/16 19:09:18;;;;;;;8.82;4.60;;;8.40;99.90;;;;;;6209940;23;20369;-87
2023/03/16 19:11:46;;;;;;;8.57;4.15;;;8.40;99.90;;;;;;6211253;23;20071;-88
2023/03/16 19:14:27;;;;;;;7.40;4.57;;;8.40;99.90;;;;;;6210813;23;20019;-87
2023/03/16 19:16:54;;;;;;;8.93;5.07;;;8.40;99.90;;;;;;6210608;23;20019;-88
2023/03/16 19:19:24;;;;;;;9.00;5.47;;;8.40;99.90;;;;;;6207356;23;20338;-88
2023/03/16 19:21:52;;;;;;;9.40;5.13;;;8.40;99.90;;;;;;6208009;23;20020;-88
2023/03/16 19:24:28;;;;;;;9.50;4.75;;;8.40;99.90;;;;;;6208941;23;20407;-87
2023/03/16 19:26:55;;;;;;;10.10;4.95;;;8.40;99.90;;;;;;6209043;23;20008;-87
2023/03/16 19:29:27;;;;;;;8.00;5.00;;;8.40;99.90;;;;;;6209396;23;20017;-88
2023/03/16 19:31:55;;;;;;;8.90;4.68;;;8.40;99.90;;;;;;6209832;23;20017;-85
2023/03/16 19:34:24;;;;;;;7.30;4.40;;;8.40;99.90;;;;;;6210987;23;20009;-85
2023/03/16 19:36:49;;;;;;;8.82;4.63;;;8.40;99.90;;;;;;6185040;23;20012;-87
2023/03/16 19:39:16;;;;;;;9.80;4.70;;;8.30;99.90;;;;;;6215978;23;20039;-88
2023/03/16 19:41:44;;;;;;;8.05;4.63;;;8.30;99.90;;;;;;6221633;23;20059;-88
2023/03/16 19:44:21;;;;;;;8.23;4.72;;;8.30;99.90;;;;;;6224439;23;20048;-89
2023/03/16 19:46:47;;;;;;;11.63;5.03;;;8.30;99.90;;;;;;6213619;23;20013;-88
2023/03/16 19:49:16;;;;;;;8.85;4.70;;;8.20;99.90;;;;;;6209398;23;20055;-86
2023/03/16 19:51:41;;;;;;;9.38;4.90;;;8.20;99.90;;;;;;6210688;23;20017;-88
2023/03/16 19:54:26;;;;;;;8.18;4.88;;;8.20;99.90;;;;;;6212956;23;20020;-88
2023/03/16 19:56:54;;;;;;;7.85;3.67;;;8.20;99.90;;;;;;6212473;23;20016;-87
2023/03/16 19:59:20;;;;;;;8.18;5.07;;;8.10;99.90;;;;;;6214246;23;20016;-89
2023/03/16 20:01:46;;;;;;;9.02;5.25;;;8.10;99.90;;;;;;6211639;23;20342;-88
2023/03/16 20:04:24;;;;;;;7.45;4.32;;;8.10;99.90;;;;;;6210958;23;20444;-88
2023/03/16 20:06:50;;;;;;;8.18;4.70;;;8.10;99.90;;;;;;6215207;23;20080;-88
2023/03/16 20:09:17;;;;;;;8.48;4.90;;;8.10;99.90;;;;;;6212956;23;20039;-88
2023/03/16 20:11:43;;;;;;;8.55;5.20;;;8.10;99.90;;;;;;6189775;23;20021;-87
2023/03/16 20:14:19;;;;;;;8.82;4.90;;;8.10;99.90;;;;;;6217543;23;20015;-87
2023/03/16 20:16:46;;;;;;;8.57;4.90;;;8.10;99.90;;;;;;6186953;23;20013;-88
2023/03/16 20:19:14;;;;;;;8.57;5.00;;;8.20;99.90;;;;;;6214399;23;20051;-88
2023/03/16 20:21:40;;;;;;;8.73;5.25;;;8.20;99.90;;;;;;6188051;23;20058;-89
2023/03/16 20:24:15;;;;;;;8.68;4.82;;;8.20;99.90;;;;;;6217929;23;20036;-87
2023/03/16 20:26:41;;;;;;;9.52;4.38;;;8.20;99.90;;;;;;6202175;23;20102;-88
2023/03/16 20:29:26;;;;;;;8.60;5.07;;;8.10;99.90;;;;;;6215459;23;20008;-88
2023/03/16 20:31:52;;;;;;;7.97;5.07;;;8.10;99.90;;;;;;6211871;23;20028;-89
2023/03/16 20:34:22;;;;;;;8.45;5.10;;;8.10;99.90;;;;;;6212713;23;20004;-89
2023/03/16 20:36:48;;;;;;;9.60;4.50;;;8.10;99.90;;;;;;6209694;23;20035;-88
2023/03/16 20:39:14;;;;;;;8.23;4.80;;;8.10;99.90;;;;;;6211209;23;20696;-86
2023/03/16 20:41:40;;;;;;;8.00;5.18;;;8.10;99.90;;;;;;6212862;23;20017;-87
2023/03/16 20:44:16;;;;;;;9.15;5.50;;;8.10;99.90;;;;;;6184042;23;20442;-86
2023/03/16 20:46:43;;;;;;;7.68;4.40;;;8.10;99.90;;;;;;6185995;23;20020;-87
2023/03/16 20:49:35;;;;;;;7.80;4.45;;;8.10;99.90;;;;;;6211611;23;20009;-87
2023/03/16 20:52:01;;;;;;;8.48;4.90;;;8.20;99.90;;;;;;6154967;23;20016;-87
2023/03/16 20:54:26;;;;;;;9.73;4.70;;;8.20;99.90;;;;;;6159902;23;20165;-87
2023/03/16 20:56:52;;;;;;;8.27;4.20;;;8.20;99.90;;;;;;6211402;23;20054;-89
2023/03/16 20:59:25;;;;;;;8.43;4.63;;;8.30;99.90;;;;;;6182064;23;20073;-88
2023/03/16 21:01:54;;;;;;;7.10;4.18;;;8.30;99.90;;;;;;6210370;23;20047;-87
2023/03/16 21:04:22;;;;;;;8.10;4.65;;;8.40;99.90;;;;;;6184432;23;20389;-87
2023/03/16 21:06:50;;;;;;;9.20;4.32;;;8.40;99.90;;;;;;6212993;23;20343;-87
2023/03/16 21:09:17;;;;;;;9.45;4.45;;;8.50;99.90;;;;;;6211459;23;20024;-88
2023/03/16 21:11:44;;;;;;;8.02;4.65;;;8.50;99.90;;;;;;6186168;23;20083;-88
2023/03/16 21:14:30;;;;;;;7.45;4.25;;;8.50;99.90;;;;;;6185118;23;20017;-87
2023/03/16 21:16:56;;;;;;;8.77;4.93;;;8.50;99.90;;;;;;6209927;23;20013;-87
2023/03/16 21:19:22;;;;;;;9.18;4.85;;;8.60;99.90;;;;;;6183571;23;20028;-87
2023/03/16 21:21:48;;;;;;;7.35;4.53;;;8.60;99.90;;;;;;6183936;23;20044;-87
2023/03/16 21:24:14;;;;;;;7.35;3.50;;;8.50;99.90;;;;;;6210523;23;20013;-86
2023/03/16 21:26:41;;;;;;;8.93;4.60;;;8.60;99.90;;;;;;6184992;23;20342;-86
2023/03/16 21:29:14;;;;;;;8.73;4.72;;;8.60;99.90;;;;;;6184719;23;20028;-86
2023/03/16 21:31:40;;;;;;;9.13;5.05;;;8.60;99.90;;;;;;6183831;23;20017;-86
2023/03/16 21:34:22;;;;;;;8.45;4.75;;;8.60;99.90;;;;;;6212733;23;20020;-86
2023/03/16 21:36:48;;;;;;;8.55;4.57;;;8.70;99.90;;;;;;6210237;23;20035;-88
2023/03/16 21:39:18;;;;;;;9.00;4.90;;;8.60;99.90;;;;;;6183394;23;20008;-87
2023/03/16 21:41:44;;;;;;;8.20;3.40;;;8.60;99.90;;;;;;6184948;23;20031;-86
2023/03/16 21:44:09;;;;;;;8.40;4.80;;;8.60;99.90;;;;;;6184693;23;20016;-86
2023/03/16 21:46:35;;;;;;;8.18;4.65;;;8.60;99.90;;;;;;6158642;23;20024;-85
2023/03/16 21:49:01;;;;;;;9.50;4.55;;;8.60;99.90;;;;;;6161010;23;20066;-85
2023/03/16 21:51:32;;;;;;;9.15;4.72;;;8.60;99.90;;;;;;6184027;23;20012;-87
2023/03/16 21:53:58;;;;;;;7.80;4.18;;;8.60;99.90;;;;;;6185154;23;20020;-86
2023/03/16 21:56:25;;;;;;;8.88;4.82;;;8.60;99.90;;;;;;6212432;23;20047;-86
2023/03/16 21:58:52;;;;;;;8.90;4.75;;;8.60;99.90;;;;;;6186016;23;20037;-87
2023/03/16 22:01:23;;;;;;;8.70;4.70;;;8.60;99.90;;;;;;6160236;23;20029;-86
2023/03/16 22:03:51;;;;;;;8.02;4.90;;;8.60;99.90;;;;;;6211864;23;20102;-86
2023/03/16 22:06:19;;;;;;;8.13;4.78;;;8.60;99.90;;;;;;6184692;23;20017;-85
2023/03/16 22:08:45;;;;;;;8.27;4.60;;;8.50;99.90;;;;;;6186316;23;20016;-86
2023/03/16 22:11:23;;;;;;;8.30;4.90;;;8.50;99.90;;;;;;6210110;23;20048;-86
2023/03/16 22:13:50;;;;;;;8.77;3.78;;;8.50;99.90;;;;;;6210067;23;20075;-86
2023/03/16 22:16:18;;;;;;;9.15;5.05;;;8.50;99.90;;;;;;6210607;23;20008;-86
2023/03/16 22:18:47;;;;;;;7.00;4.60;;;8.40;99.90;;;;;;6211439;23;20013;-86
2023/03/16 22:21:22;;;;;;;8.55;4.80;;;8.40;99.90;;;;;;6212477;23;20385;-86
2023/03/16 22:23:48;;;;;;;8.70;4.50;;;8.30;99.90;;;;;;6212229;23;20442;-86
2023/03/16 22:26:19;;;;;;;9.20;5.00;;;8.30;99.90;;;;;;6213732;23;20016;-86
2023/03/16 22:28:45;;;;;;;8.88;5.05;;;8.30;99.90;;;;;;6212340;23;20051;-86
2023/03/16 22:31:15;;;;;;;9.18;4.90;;;8.30;99.90;;;;;;6212203;23;20385;-86
2023/03/16 22:33:42;;;;;;;9.95;3.92;;;8.20;99.90;;;;;;6211204;23;20017;-86
2023/03/16 22:36:14;;;;;;;8.98;4.90;;;8.10;99.90;;;;;;6214244;23;20107;-86
2023/03/16 22:38:41;;;;;;;8.45;4.95;;;8.10;99.90;;;;;;6224240;23;20031;-86
2023/03/16 22:41:10;;;;;;;8.88;4.80;;;8.10;99.90;;;;;;6218985;23;20063;-86
2023/03/16 22:43:38;;;;;;;8.02;4.65;;;8.10;99.90;;;;;;6213937;23;20016;-86
2023/03/16 22:46:04;;;;;;;7.68;4.38;;;8.00;99.90;;;;;;6215779;23;20342;-86
2023/03/16 22:48:30;;;;;;;8.20;4.70;;;8.00;99.90;;;;;;6215427;23;20008;-85